Time;durP1;ratioP1;P1;durP2;ratioP2;P2;SDS_P1;SDS_P2;PMS_P1;PMS_P2;Temp;Humidity;BMP_temperature;BMP_pressure;BME280_temperature;BME280_humidity;BME280_pressure;Samples;Min_cycle;Max_cycle;Signal;HPM_P1;HPM_P2
2023/03/18 00:02:14;;;;;;;406.67;256.98;;;9.70;99.90;;;9.82;84.09;99148.47;4945395;28;20253;-78
2023/03/18 00:04:41;;;;;;;411.55;269.98;;;9.70;99.90;;;9.65;85.97;99179.41;4941442;28;20730;-77
2023/03/18 00:07:08;;;;;;;408.95;254.32;;;9.60;99.90;;;9.60;87.58;99223.44;4948756;28;20313;-77
2023/03/18 00:09:37;;;;;;;405.67;266.83;;;9.50;99.90;;;9.58;88.15;99233.13;4943763;28;20230;-77
2023/03/18 00:12:05;;;;;;;407.35;258.30;;;9.50;99.90;;;9.67;87.87;99230.44;4946277;28;20320;-77
2023/03/18 00:14:35;;;;;;;407.13;257.13;;;9.60;99.90;;;9.70;87.53;99230.41;4947220;28;20313;-78
2023/03/18 00:17:03;;;;;;;399.98;256.10;;;9.60;99.90;;;9.72;87.48;99230.41;4950320;28;20246;-78
2023/03/18 00:19:32;;;;;;;441.33;282.35;;;9.60;99.90;;;9.65;87.45;99231.31;4945936;28;20296;-77
2023/03/18 00:21:59;;;;;;;399.33;250.90;;;9.50;99.90;;;9.54;87.77;99234.03;4943038;28;20301;-78
2023/03/18 00:24:27;;;;;;;403.90;252.70;;;9.50;99.90;;;9.46;88.61;99246.38;4948525;28;20230;-77
2023/03/18 00:26:54;;;;;;;406.60;253.98;;;9.40;99.90;;;9.40;89.13;99249.94;4947363;28;20304;-77
2023/03/18 00:29:23;;;;;;;409.05;253.27;;;9.50;99.90;;;9.71;87.78;99249.75;4938932;28;20264;-77
2023/03/18 00:31:51;;;;;;;408.42;256.95;;;;;;;9.71;87.21;99241.84;4945319;28;20606;-78
2023/03/18 00:34:19;;;;;;;401.85;251.75;;;;;;;9.73;86.63;99243.59;4941660;28;20269;-77
2023/03/18 00:36:49;;;;;;;409.13;264.40;;;;;;;9.63;87.15;99241.88;4931152;29;20238;-77
2023/03/18 00:39:20;;;;;;;405.20;257.45;;;9.40;99.90;;;9.41;88.04;99258.72;4951071;28;20585;-79
2023/03/18 00:41:47;;;;;;;400.45;252.43;;;9.40;99.90;;;9.50;87.71;99261.31;4946789;28;20623;-78
2023/03/18 00:44:14;;;;;;;401.23;257.45;;;9.40;99.90;;;9.46;88.16;99268.38;4947530;28;20250;-78
2023/03/18 00:46:42;;;;;;;408.70;257.98;;;9.40;99.90;;;9.45;88.62;99271.91;4939955;28;20329;-76
2023/03/18 00:49:09;;;;;;;407.85;259.92;;;9.40;99.90;;;9.57;88.70;99281.53;4941228;28;20726;-77
2023/03/18 00:51:38;;;;;;;407.85;251.23;;;9.50;99.90;;;9.62;88.01;99285.00;4942366;28;20324;-77
2023/03/18 00:54:09;;;;;;;409.95;259.85;;;9.50;99.90;;;9.50;89.13;99295.63;4947059;28;20338;-77
2023/03/18 00:56:37;;;;;;;404.65;245.57;;;9.30;99.90;;;9.41;89.91;99309.75;4942943;28;20237;-77
2023/03/18 00:59:06;;;;;;;399.27;247.43;;;9.40;99.90;;;9.53;89.30;99311.44;4943854;28;20238;-77
2023/03/18 01:01:35;;;;;;;404.50;256.48;;;9.50;99.90;;;9.66;87.99;99299.06;4940175;28;20299;-77
2023/03/18 01:04:03;;;;;;;410.38;255.60;;;9.50;99.90;;;9.79;86.74;99287.56;4945776;28;20253;-77
2023/03/18 01:06:33;;;;;;;412.00;253.95;;;9.60;99.90;;;9.77;86.01;99278.75;4943395;28;20226;-77
2023/03/18 01:09:03;;;;;;;403.27;243.02;;;9.70;99.90;;;9.79;85.78;99272.59;4941605;28;20234;-77
2023/03/18 01:11:32;;;;;;;410.65;250.80;;;9.70;99.90;;;9.76;85.71;99271.72;4938300;28;20329;-77
2023/03/18 01:13:59;;;;;;;404.70;252.55;;;;;;;9.91;84.65;99251.38;4943531;28;20249;-77
2023/03/18 01:16:28;;;;;;;402.20;244.45;;;9.80;99.90;;;9.84;84.76;99251.44;4946581;28;20234;-77
2023/03/18 01:18:56;;;;;;;391.90;240.90;;;;;;;9.86;84.29;99245.25;4947862;28;20238;-78
2023/03/18 01:21:24;;;;;;;403.08;251.57;;;;;;;9.91;83.86;99234.66;4948262;28;20317;-76
2023/03/18 01:23:52;;;;;;;419.17;260.27;;;;;;;10.05;83.83;99247.75;4941075;28;20288;-77
2023/03/18 01:26:19;;;;;;;402.83;255.13;;;;;;;10.88;78.85;99204.69;4947635;28;20225;-77
2023/03/18 01:28:46;;;;;;;408.70;263.02;;;10.50;99.90;;;10.64;78.75;99159.16;4948873;28;20671;-78
2023/03/18 01:31:14;;;;;;;401.90;261.35;;;10.50;99.90;;;10.79;77.10;99109.63;4944638;28;20238;-77
2023/03/18 01:33:41;;;;;;;410.15;267.13;;;10.50;99.90;;;10.52;77.48;99100.25;4942443;28;20231;-78
2023/03/18 01:36:09;;;;;;;401.55;256.00;;;10.50;99.90;;;10.50;77.65;99103.81;4944257;28;20310;-77
2023/03/18 01:38:37;;;;;;;419.88;270.60;;;10.40;99.90;;;10.62;76.54;99063.13;4944079;28;20288;-77
2023/03/18 01:41:04;;;;;;;420.05;277.98;;;10.40;99.90;;;10.59;76.13;99034.97;4946673;28;20340;-78
2023/03/18 01:43:37;;;;;;;401.50;260.90;;;10.50;99.90;;;10.65;75.84;99019.03;4944148;28;20237;-78
2023/03/18 01:46:41;;;;;;;422.90;286.00;;;10.50;99.90;;;10.51;76.55;99040.38;4944417;28;20233;-78
2023/03/18 01:49:16;;;;;;;394.42;253.38;;;10.50;99.90;;;10.40;78.07;99092.47;4949333;28;20296;-78
2023/03/18 01:51:53;;;;;;;418.60;271.40;;;10.10;99.90;;;10.15;79.89;99123.50;4939605;28;20237;-78
2023/03/18 01:54:23;;;;;;;409.13;265.90;;;10.10;99.90;;;10.19;80.19;99145.50;4946844;28;20312;-78
2023/03/18 01:56:53;;;;;;;412.88;278.17;;;10.00;99.90;;;10.15;80.16;99151.69;4947669;28;20324;-77
2023/03/18 01:59:25;;;;;;;415.52;273.55;;;10.10;99.90;;;9.94;82.47;99182.69;4946362;28;20351;-78
2023/03/18 02:02:00;;;;;;;406.83;271.42;;;9.90;99.90;;;9.99;82.48;99184.41;4928905;28;20244;-78
2023/03/18 02:04:35;;;;;;;403.70;265.88;;;9.90;99.90;;;9.93;83.49;99212.63;4940385;28;20265;-78
2023/03/18 02:07:04;;;;;;;407.27;263.67;;;9.90;99.90;;;9.98;83.39;99232.84;4936764;28;20261;-77
2023/03/18 02:09:31;;;;;;;436.52;288.58;;;9.90;99.90;;;10.09;81.98;99196.66;4934035;28;20305;-77
2023/03/18 02:12:00;;;;;;;522.33;342.25;;;9.90;99.90;;;10.03;82.39;99188.78;4933504;28;20272;-75
2023/03/18 02:14:27;;;;;;;526.63;344.40;;;9.90;99.90;;;9.95;82.86;99194.13;4926806;28;20261;-76
2023/03/18 02:17:16;;;;;;;410.13;273.23;;;9.90;99.90;;;10.01;82.00;99180.00;4937795;28;20237;-76
2023/03/18 02:19:49;;;;;;;420.27;271.90;;;9.90;99.90;;;9.97;81.74;99168.59;4935780;28;20687;-78
2023/03/18 02:22:30;;;;;;;413.92;271.08;;;9.90;99.90;;;9.93;81.61;99169.50;4946168;28;20260;-78
2023/03/18 02:25:38;;;;;;;406.85;267.25;;;9.90;99.90;;;10.02;81.03;99150.94;4944360;28;20272;-78
2023/03/18 02:28:13;;;;;;;410.00;262.15;;;9.90;99.90;;;10.00;80.79;99142.16;4925158;29;20237;-77
2023/03/18 02:30:46;;;;;;;413.20;268.17;;;9.90;99.90;;;10.04;80.38;99128.03;4945789;28;20332;-78
2023/03/18 02:33:16;;;;;;;410.15;263.60;;;10.00;99.90;;;10.09;80.06;99114.78;4946583;28;20230;-77
2023/03/18 02:35:53;;;;;;;416.38;268.85;;;10.00;99.90;;;10.21;78.91;99093.53;4936555;28;20236;-78
2023/03/18 02:38:20;;;;;;;403.85;271.40;;;10.00;99.90;;;9.89;81.46;99151.94;4944785;28;20284;-77
2023/03/18 02:40:48;;;;;;;410.63;266.35;;;9.90;99.90;;;9.75;82.98;99194.28;4941462;28;20258;-77
2023/03/18 02:43:31;;;;;;;410.77;271.73;;;9.80;99.90;;;9.78;83.11;99228.59;4945664;28;20689;-77
2023/03/18 02:46:46;;;;;;;415.80;270.13;;;9.70;99.90;;;9.85;82.81;99209.16;4939064;28;20324;-77
2023/03/18 02:49:15;;;;;;;422.13;268.50;;;9.70;99.90;;;9.92;81.81;99175.69;4927936;29;20760;-77
2023/03/18 02:51:43;;;;;;;412.08;269.90;;;9.80;99.90;;;9.95;81.42;99165.09;4943704;28;20238;-78
2023/03/18 02:54:15;;;;;;;414.75;271.02;;;9.90;99.90;;;9.92;81.29;99166.00;4946157;28;20261;-77
2023/03/18 02:56:43;;;;;;;415.95;276.73;;;9.80;99.90;;;9.93;81.21;99161.59;4940725;28;20258;-77
2023/03/18 02:59:11;;;;;;;409.88;268.33;;;9.80;99.90;;;9.91;80.98;99158.97;4945669;28;20316;-78
2023/03/18 03:01:42;;;;;;;403.98;271.45;;;9.80;99.90;;;9.80;81.74;99195.13;4946665;28;20241;-77
2023/03/18 03:04:11;;;;;;;408.42;269.70;;;9.70;99.90;;;9.80;81.75;99196.91;4941966;28;20237;-77
2023/03/18 03:06:39;;;;;;;409.73;269.65;;;9.80;99.90;;;9.95;81.07;99175.66;4947637;28;20337;-79
2023/03/18 03:09:10;;;;;;;412.05;270.48;;;9.80;99.90;;;9.75;82.57;99194.28;4947396;28;20233;-77
2023/03/18 03:11:37;;;;;;;406.98;266.70;;;9.60;99.90;;;9.65;82.80;99213.72;4944537;28;20309;-77
2023/03/18 03:14:04;;;;;;;418.27;274.65;;;9.60;99.90;;;9.69;82.80;99233.94;4948363;28;20269;-77
2023/03/18 03:16:31;;;;;;;421.98;277.00;;;9.60;99.90;;;9.73;82.36;99209.25;4963593;28;20292;-77
2023/03/18 03:18:58;;;;;;;407.25;267.45;;;9.60;99.90;;;9.63;83.08;99226.94;4948432;28;20357;-79
2023/03/18 03:21:26;;;;;;;421.38;272.05;;;9.60;99.90;;;9.66;83.14;99233.94;4939143;28;20245;-78
2023/03/18 03:23:53;;;;;;;420.25;290.40;;;9.60;99.90;;;9.69;82.46;99225.13;4949408;28;20312;-76
2023/03/18 03:26:21;;;;;;;409.85;267.63;;;9.50;99.90;;;9.61;82.95;99233.97;4949448;28;20695;-78
2023/03/18 03:28:48;;;;;;;407.83;264.05;;;9.50;99.90;;;9.66;82.81;99231.31;4948333;28;20341;-77
2023/03/18 03:31:16;;;;;;;405.63;261.27;;;9.60;99.90;;;9.62;82.87;99234.84;4946173;28;21047;-77
2023/03/18 03:33:43;;;;;;;425.27;282.15;;;9.50;99.90;;;9.61;83.23;99233.97;4949252;28;20273;-78
2023/03/18 03:36:14;;;;;;;437.48;289.90;;;9.50;99.90;;;9.44;85.02;99266.63;4949093;28;20289;-77
2023/03/18 03:38:42;;;;;;;415.58;264.80;;;9.40;99.90;;;9.23;87.68;99301.91;4945381;28;20317;-78
2023/03/18 03:41:11;;;;;;;401.13;255.52;;;9.10;99.90;;;9.17;89.14;99341.50;4951238;28;20315;-77
2023/03/18 03:43:39;;;;;;;418.35;258.92;;;9.10;99.90;;;9.21;89.20;99344.13;4949875;28;20225;-77
2023/03/18 03:46:08;;;;;;;404.58;254.35;;;9.10;99.90;;;9.20;89.55;99347.63;4948229;28;20669;-77
2023/03/18 03:48:37;;;;;;;409.45;257.90;;;9.10;99.90;;;9.18;89.95;99351.16;4945245;28;20248;-76
2023/03/18 03:51:04;;;;;;;420.17;265.75;;;9.10;99.90;;;9.22;89.91;99360.81;4940200;28;20246;-77
2023/03/18 03:53:32;;;;;;;410.92;261.35;;;9.20;99.90;;;9.23;89.89;99363.44;4946675;28;20974;-77
2023/03/18 03:56:00;;;;;;;409.60;255.57;;;9.20;99.90;;;9.23;89.06;99352.91;4943185;28;20265;-77
2023/03/18 03:58:27;;;;;;;423.40;270.45;;;9.10;99.90;;;9.24;88.79;99352.00;4945570;28;20375;-77
2023/03/18 04:00:55;;;;;;;412.92;263.40;;;9.20;99.90;;;9.22;89.34;99355.53;4945909;28;20967;-77
2023/03/18 04:03:22;;;;;;;414.02;266.17;;;9.10;99.90;;;9.21;89.05;99343.22;4947064;28;20330;-77
2023/03/18 04:05:49;;;;;;;408.92;264.48;;;9.10;99.90;;;9.19;89.42;99351.16;4952261;28;20687;-78
2023/03/18 04:08:16;;;;;;;403.20;255.50;;;9.10;99.90;;;9.19;89.37;99358.19;4941474;28;20334;-77
2023/03/18 04:10:43;;;;;;;419.35;266.33;;;9.10;99.90;;;9.18;89.34;99357.31;4946829;28;20233;-76
2023/03/18 04:13:10;;;;;;;441.50;278.73;;;9.10;99.90;;;9.18;89.41;99362.59;4945728;28;20245;-78
2023/03/18 04:15:37;;;;;;;409.35;250.80;;;9.10;99.90;;;9.18;89.17;99359.06;4947060;28;20300;-77
2023/03/18 04:18:05;;;;;;;409.65;256.40;;;9.10;99.90;;;9.19;89.33;99363.47;4948804;28;20691;-77
2023/03/18 04:20:38;;;;;;;415.50;258.45;;;9.10;99.90;;;9.14;89.47;99365.22;4940340;28;20265;-78
2023/03/18 04:23:06;;;;;;;403.60;246.68;;;9.10;99.90;;;9.13;89.46;99363.47;4945864;28;20229;-78
2023/03/18 04:25:34;;;;;;;404.10;252.82;;;9.10;99.90;;;9.11;89.65;99373.16;4946529;28;20254;-78
2023/03/18 04:28:01;;;;;;;407.92;255.32;;;9.00;99.90;;;9.18;89.09;99364.34;4943239;28;20321;-78
2023/03/18 04:30:29;;;;;;;412.27;257.83;;;9.00;99.90;;;9.20;88.20;99357.31;4940763;28;20246;-77
2023/03/18 04:32:58;;;;;;;404.05;244.43;;;9.10;99.90;;;9.29;87.42;99350.25;4943470;28;20320;-78
2023/03/18 04:35:27;;;;;;;399.83;241.02;;;9.20;99.90;;;9.24;87.07;99343.22;4948782;28;20316;-77
2023/03/18 04:37:54;;;;;;;418.20;253.50;;;9.10;99.90;;;9.11;87.70;99342.38;4940214;28;20246;-77
2023/03/18 04:40:21;;;;;;;407.95;249.55;;;8.80;99.90;;;8.98;89.17;99362.59;4941477;28;20250;-77
2023/03/18 04:42:48;;;;;;;417.98;250.68;;;8.90;99.90;;;8.93;89.99;99384.56;4947473;28;20262;-77
2023/03/18 04:45:16;;;;;;;407.75;243.23;;;8.70;99.90;;;8.79;90.71;99399.53;4948597;28;20336;-77
2023/03/18 04:47:44;;;;;;;432.75;257.70;;;8.70;99.90;;;8.81;91.33;99413.59;4945030;28;20399;-77
2023/03/18 04:50:14;;;;;;;403.75;245.98;;;8.80;99.90;;;8.84;90.95;99414.47;4947291;28;20242;-79
2023/03/18 04:52:43;;;;;;;399.80;244.15;;;8.80;99.90;;;8.90;90.33;99405.66;4942434;28;20336;-79
2023/03/18 04:55:19;;;;;;;411.70;248.63;;;8.80;99.90;;;8.89;89.80;99396.88;4942619;28;20245;-78
2023/03/18 04:57:47;;;;;;;412.08;243.23;;;8.80;99.90;;;8.79;90.06;99399.53;4942239;28;20276;-78
2023/03/18 05:00:22;;;;;;;405.42;244.55;;;8.70;99.90;;;8.80;90.30;99398.66;4947125;28;20770;-77
2023/03/18 05:02:49;;;;;;;411.17;250.80;;;;;;;8.77;90.60;99419.75;4947603;28;20253;-79
2023/03/18 05:05:17;;;;;;;394.15;232.40;;;;;;;8.75;90.91;99413.59;4948450;28;20225;-78
2023/03/18 05:07:44;;;;;;;398.45;230.25;;;8.70;99.90;;;8.72;90.92;99419.75;4938238;28;20234;-78
2023/03/18 05:10:12;;;;;;;401.58;238.32;;;8.60;99.90;;;8.61;91.73;99425.00;4954842;28;20316;-78
2023/03/18 05:12:39;;;;;;;401.05;234.63;;;8.50;99.90;;;8.66;92.54;99446.09;4946802;28;20320;-78
2023/03/18 05:15:07;;;;;;;397.33;232.13;;;8.60;99.90;;;8.57;92.71;99436.41;4947200;28;20273;-78
2023/03/18 05:17:38;;;;;;;397.58;232.20;;;8.50;99.90;;;8.58;93.04;99451.34;4960409;28;20265;-77
2023/03/18 05:20:07;;;;;;;397.52;227.20;;;8.50;99.90;;;8.42;93.80;99448.69;4950260;28;20284;-78
2023/03/18 05:22:34;;;;;;;398.83;224.50;;;8.40;99.90;;;8.39;94.01;99459.22;4966360;28;20312;-78
2023/03/18 05:25:01;;;;;;;394.83;229.38;;;8.30;99.90;;;8.21;95.27;99458.28;4947885;28;20269;-78
2023/03/18 05:27:28;;;;;;;399.42;227.95;;;8.10;99.90;;;8.14;95.67;99459.13;4958618;28;20237;-78
2023/03/18 05:29:56;;;;;;;399.05;226.90;;;8.10;99.90;;;8.13;96.10;99464.38;4943003;28;20649;-79
2023/03/18 05:32:23;;;;;;;392.02;220.00;;;8.10;99.90;;;8.25;95.94;99472.31;4967604;28;20269;-78
2023/03/18 05:34:51;;;;;;;401.10;226.55;;;8.10;99.90;;;8.24;95.08;99474.09;4941055;28;20297;-77
2023/03/18 05:37:18;;;;;;;399.40;224.05;;;8.20;99.90;;;8.13;95.26;99473.16;4930674;29;20276;-78
2023/03/18 05:39:45;;;;;;;399.25;225.07;;;8.10;99.90;;;7.87;96.36;99483.59;4944492;28;20324;-80
2023/03/18 05:42:13;;;;;;;396.67;217.40;;;7.90;99.90;;;7.99;96.44;99488.03;4941153;28;20246;-80
2023/03/18 05:44:41;;;;;;;395.25;219.38;;;8.00;99.90;;;8.06;96.03;99492.44;4951440;28;20292;-77
2023/03/18 05:47:08;;;;;;;394.70;217.10;;;7.50;99.90;;;8.03;96.15;99492.44;4943163;28;20229;-78
2023/03/18 05:49:36;;;;;;;402.65;220.10;;;8.00;99.90;;;8.03;96.08;99495.94;4942251;28;20741;-77
2023/03/18 05:52:03;;;;;;;394.63;214.10;;;8.00;99.90;;;8.12;96.22;99512.66;4947252;28;20241;-78
2023/03/18 05:54:30;;;;;;;404.77;220.07;;;8.00;99.90;;;8.11;96.37;99521.44;4941064;28;20245;-77
2023/03/18 05:56:58;;;;;;;418.38;222.10;;;8.00;99.90;;;7.94;99.03;99553.81;4949035;28;20706;-81
2023/03/18 05:59:25;;;;;;;401.02;217.43;;;7.90;99.90;;;7.98;99.33;99562.63;4949259;28;20244;-81
2023/03/18 06:01:53;;;;;;;409.98;220.35;;;7.90;99.90;;;7.93;100.00;99575.75;4949757;28;20287;-81
2023/03/18 06:04:20;;;;;;;396.10;213.73;;;7.90;99.90;;;8.02;99.94;99580.19;4949292;28;20269;-79
2023/03/18 06:07:35;;;;;;;413.98;223.48;;;7.90;99.90;;;8.03;100.00;99597.75;4942860;28;20241;-77
2023/03/18 06:10:07;;;;;;;427.30;261.00;;;7.90;99.90;;;7.95;100.00;99602.97;4919172;28;20238;-75
2023/03/18 06:12:34;;;;;;;464.30;263.73;;;7.90;99.90;;;8.01;100.00;99610.91;4934936;28;20242;-76
2023/03/18 06:15:02;;;;;;;393.52;201.60;;;7.90;99.90;;;8.04;100.00;99617.94;4931467;28;20316;-78
2023/03/18 06:17:30;;;;;;;405.20;209.82;;;8.00;99.90;;;8.02;100.00;99620.56;4949372;28;20332;-77
2023/03/18 06:19:58;;;;;;;401.33;202.15;;;8.00;99.90;;;8.23;99.59;99632.97;4944838;28;20253;-77
2023/03/18 06:22:25;;;;;;;421.67;215.48;;;8.00;99.90;;;8.11;99.63;99618.88;4945163;28;20321;-78
2023/03/18 06:24:53;;;;;;;402.58;208.20;;;8.00;99.90;;;8.11;99.04;99606.56;4947623;28;20312;-79
2023/03/18 06:27:20;;;;;;;408.52;221.05;;;8.10;99.90;;;8.00;99.09;99610.91;4941236;28;20264;-79
2023/03/18 06:29:47;;;;;;;402.33;202.60;;;8.00;99.90;;;8.00;98.50;99603.88;4945612;28;20605;-78
2023/03/18 06:32:14;;;;;;;405.88;206.00;;;8.00;99.90;;;8.05;97.60;99606.53;4942008;28;20233;-78
2023/03/18 06:34:41;;;;;;;400.80;200.55;;;8.00;99.90;;;8.12;95.90;99591.66;4948697;28;20293;-78
2023/03/18 06:37:09;;;;;;;404.00;204.15;;;8.10;99.90;;;8.23;94.25;99582.94;4941111;28;20668;-77
2023/03/18 06:39:36;;;;;;;397.35;203.40;;;8.20;99.90;;;8.25;92.82;99570.66;4946225;28;20237;-79
2023/03/18 06:42:06;;;;;;;413.45;213.90;;;8.20;99.90;;;8.22;92.17;99554.84;4949936;28;20248;-80
2023/03/18 06:44:34;;;;;;;401.73;211.02;;;8.10;99.90;;;8.18;91.89;99550.44;4951672;28;20237;-80
2023/03/18 06:47:01;;;;;;;407.42;207.80;;;8.10;99.90;;;8.26;91.12;99558.38;4955539;28;20288;-80
2023/03/18 06:49:29;;;;;;;406.40;207.38;;;8.20;99.90;;;8.21;91.41;99550.44;4942964;28;20230;-81
2023/03/18 06:51:56;;;;;;;407.60;209.15;;;8.10;99.90;;;8.24;90.99;99553.09;4953063;28;20272;-80
2023/03/18 06:54:24;;;;;;;395.70;193.90;;;8.10;99.90;;;8.16;91.76;99556.56;4950637;28;20305;-79
2023/03/18 06:56:51;;;;;;;391.40;200.32;;;8.10;99.90;;;8.21;91.34;99555.72;4946087;28;20245;-79
2023/03/18 06:59:20;;;;;;;401.23;204.30;;;8.10;99.90;;;8.21;91.32;99558.34;4946809;28;20297;-78
2023/03/18 07:01:48;;;;;;;396.70;198.25;;;8.10;99.90;;;8.37;90.74;99569.88;4941494;28;20238;-79
2023/03/18 07:04:15;;;;;;;392.65;194.50;;;8.20;99.90;;;8.42;90.10;99564.63;4947770;28;20245;-81
2023/03/18 07:06:42;;;;;;;406.45;202.73;;;8.30;99.90;;;8.42;89.83;99559.34;4947692;28;20698;-80
2023/03/18 07:09:11;;;;;;;394.77;199.52;;;8.30;99.90;;;8.39;89.89;99557.56;4948355;28;20234;-80
2023/03/18 07:11:38;;;;;;;402.80;199.38;;;8.30;99.90;;;8.55;89.74;99566.41;4946570;28;20229;-80
2023/03/18 07:14:05;;;;;;;397.23;197.18;;;8.40;99.90;;;8.59;89.38;99568.19;4947754;28;20241;-80
2023/03/18 07:16:32;;;;;;;394.40;202.02;;;8.60;99.90;;;8.73;89.61;99587.56;4943454;28;20234;-80
2023/03/18 07:19:00;;;;;;;392.25;203.32;;;8.60;99.90;;;8.81;89.76;99590.22;4937744;28;20289;-80
2023/03/18 07:21:28;;;;;;;402.45;203.52;;;8.70;99.90;;;8.95;89.63;99605.19;4948094;28;20288;-80
2023/03/18 07:23:55;;;;;;;392.92;199.60;;;8.80;99.90;;;9.03;89.12;99609.59;4945814;28;20288;-80
2023/03/18 07:26:22;;;;;;;394.58;198.98;;;8.80;99.90;;;9.14;89.07;99615.81;4955274;28;20225;-80
2023/03/18 07:28:50;;;;;;;400.48;208.07;;;9.00;99.90;;;9.09;89.08;99617.50;4952824;28;20233;-80
2023/03/18 07:31:17;;;;;;;402.50;207.75;;;9.00;99.90;;;9.15;88.11;99612.28;4949110;28;20245;-80
2023/03/18 07:33:45;;;;;;;405.63;213.98;;;9.10;99.90;;;9.27;87.77;99614.94;4947915;28;20254;-80
2023/03/18 07:36:13;;;;;;;390.17;208.57;;;9.10;99.90;;;9.28;87.86;99609.66;4949582;28;20257;-80
2023/03/18 07:38:40;;;;;;;393.38;208.32;;;9.30;99.90;;;9.44;87.16;99612.31;4945363;28;20378;-79
2023/03/18 07:41:07;;;;;;;402.92;221.95;;;9.30;99.90;;;9.65;86.70;99629.91;4949740;28;20297;-79
2023/03/18 07:43:35;;;;;;;405.23;229.05;;;9.70;99.90;;;9.79;84.70;99604.38;4944949;28;20264;-79
2023/03/18 07:46:03;;;;;;;402.23;227.45;;;9.60;99.90;;;9.95;84.68;99590.28;4950254;28;20233;-79
2023/03/18 07:48:32;;;;;;;407.15;236.35;;;9.80;99.90;;;9.95;84.07;99596.44;4942930;28;20329;-80
2023/03/18 07:51:01;;;;;;;413.15;249.98;;;8.60;99.90;;;10.05;83.35;99572.63;4948278;28;20236;-80
2023/03/18 07:53:28;;;;;;;402.85;232.40;;;9.90;99.90;;;9.97;82.72;99563.84;4954272;28;20232;-80
2023/03/18 07:55:55;;;;;;;394.90;227.48;;;9.90;99.90;;;9.83;83.48;99563.88;4949164;28;20337;-80
2023/03/18 07:58:23;;;;;;;401.73;245.25;;;9.80;99.90;;;9.99;83.42;99576.19;4938589;28;20691;-80
2023/03/18 08:00:52;;;;;;;408.02;242.07;;;9.80;99.90;;;10.29;81.51;99540.00;4937842;28;20257;-80
2023/03/18 08:03:19;;;;;;;400.42;231.93;;;10.10;99.90;;;10.37;80.60;99504.72;4934445;29;20230;-80
2023/03/18 08:05:46;;;;;;;397.90;235.15;;;10.20;99.90;;;10.58;79.64;99495.84;4940209;28;20273;-80
2023/03/18 08:08:13;;;;;;;406.40;253.25;;;10.40;99.90;;;10.92;78.68;99479.75;4934959;29;20312;-81
2023/03/18 08:10:40;;;;;;;415.95;255.80;;;10.90;99.90;;;11.17;75.90;99401.91;4942762;28;20280;-79
2023/03/18 08:13:07;;;;;;;412.92;261.65;;;10.90;99.90;;;11.36;75.50;99392.88;4937026;28;20282;-80
2023/03/18 08:15:34;;;;;;;423.52;289.77;;;11.40;99.90;;;11.55;74.55;99372.38;4946813;28;20258;-80
2023/03/18 08:18:01;;;;;;;419.27;287.85;;;11.40;99.90;;;11.94;74.44;99392.25;4951862;28;20241;-80
2023/03/18 08:20:28;;;;;;;421.10;286.05;;;12.00;99.90;;;12.34;71.86;99309.50;4946504;28;20289;-80
2023/03/18 08:22:55;;;;;;;416.35;297.60;;;12.00;99.90;;;12.46;69.65;99213.88;4952086;28;20257;-80
2023/03/18 08:25:23;;;;;;;419.35;306.75;;;12.20;99.90;;;12.69;69.09;99206.34;4946091;28;20334;-79
2023/03/18 08:27:51;;;;;;;436.92;334.73;;;12.40;99.90;;;12.64;69.20;99196.72;4940947;28;20246;-79
2023/03/18 08:30:18;;;;;;;424.20;329.00;;;12.40;99.90;;;12.55;69.59;99191.59;4942830;28;20234;-80
2023/03/18 08:32:45;;;;;;;422.75;333.88;;;12.60;99.90;;;12.79;68.91;99185.84;4947232;28;20237;-79
2023/03/18 08:35:13;;;;;;;426.33;340.27;;;12.60;99.90;;;13.32;67.50;99136.97;4942490;28;20707;-79
2023/03/18 08:37:40;;;;;;;430.23;346.30;;;13.10;99.90;;;13.28;66.07;99049.47;4952384;28;20277;-79
2023/03/18 08:40:08;;;;;;;431.73;360.13;;;13.10;99.90;;;13.52;65.83;99058.63;4952058;28;20268;-79
2023/03/18 08:42:35;;;;;;;436.38;367.73;;;13.30;99.90;;;13.43;64.90;99003.97;4956828;28;20288;-79
2023/03/18 08:45:03;;;;;;;438.10;384.25;;;13.30;99.90;;;13.61;66.05;99058.41;4947464;28;20265;-79
2023/03/18 08:47:31;;;;;;;439.75;391.50;;;13.40;99.90;;;13.65;65.20;98998.97;4945559;28;20238;-80
2023/03/18 08:49:58;;;;;;;462.33;409.75;;;13.50;99.90;;;13.93;65.39;99020.34;4942290;28;20232;-79
2023/03/18 08:52:25;;;;;;;458.40;409.92;;;13.60;99.90;;;13.95;64.32;98960.06;4950007;29;20249;-80
2023/03/18 08:54:52;;;;;;;464.83;415.98;;;13.80;99.90;;;14.11;63.74;98942.75;4949422;28;20237;-80
2023/03/18 08:57:19;;;;;;;478.35;429.35;;;13.90;99.90;;;14.25;64.04;98960.97;4956003;28;20328;-81
2023/03/18 08:59:46;;;;;;;504.58;454.50;;;14.10;99.90;;;14.30;63.06;98896.13;4950529;28;20280;-80
2023/03/18 09:02:17;;;;;;;504.13;454.42;;;14.10;99.90;;;14.30;63.38;98897.91;4934519;28;20250;-79
2023/03/18 09:04:44;;;;;;;527.85;476.45;;;14.20;99.90;;;14.47;61.63;98828.28;4950175;28;20703;-80
2023/03/18 09:07:12;;;;;;;532.60;481.77;;;14.40;99.90;;;14.52;62.52;98819.25;4948771;28;20237;-81
2023/03/18 09:09:40;;;;;;;541.50;490.95;;;14.40;99.90;;;14.68;61.90;98807.16;4948725;28;20318;-79
2023/03/18 09:12:11;;;;;;;539.45;489.05;;;;;;;14.56;60.50;98711.81;4944159;28;20233;-79
2023/03/18 09:14:39;;;;;;;551.28;500.52;;;14.40;99.90;;;14.67;60.99;98738.91;4945547;28;20682;-79
2023/03/18 09:17:09;;;;;;;558.83;507.42;;;14.60;99.90;;;14.83;60.33;98714.44;4934524;28;20234;-78
2023/03/18 09:19:36;;;;;;;561.67;509.98;;;14.70;99.90;;;14.90;59.54;98663.59;4933350;28;20241;-81
2023/03/18 09:22:03;;;;;;;561.33;510.48;;;14.70;99.90;;;15.21;59.92;98721.03;4947814;28;20686;-81
2023/03/18 09:24:30;;;;;;;574.92;523.70;;;15.00;99.90;;;15.30;60.17;98692.25;4945417;28;20265;-80
2023/03/18 09:26:58;;;;;;;601.85;547.47;;;15.10;99.90;;;15.46;60.57;98711.19;4924776;28;20232;-80
2023/03/18 09:29:26;;;;;;;596.53;544.22;;;;;;;15.31;59.08;98592.81;4957995;28;20241;-81
2023/03/18 09:31:54;;;;;;;590.75;539.80;;;15.10;99.90;;;15.52;59.80;98655.00;4943737;28;20253;-83
2023/03/18 09:34:21;;;;;;;587.47;536.17;;;15.30;99.90;;;15.33;59.02;98558.13;4942066;28;20245;-80
2023/03/18 09:36:50;;;;;;;605.95;553.67;;;15.30;99.90;;;15.20;58.82;98475.19;4942337;28;20265;-81
2023/03/18 09:39:21;;;;;;;607.95;555.47;;;15.10;99.90;;;15.41;59.35;98540.03;4941444;28;20253;-81
2023/03/18 09:42:12;;;;;;;612.25;559.67;;;15.30;99.90;;;15.65;58.85;98549.75;4942197;28;20265;-80
2023/03/18 09:44:39;;;;;;;609.22;557.60;;;15.50;99.90;;;15.60;58.74;98509.09;4946889;28;20233;-80
2023/03/18 09:47:31;;;;;;;628.08;575.65;;;15.50;99.90;;;15.63;59.69;98537.41;4947526;28;20241;-81
2023/03/18 09:50:28;;;;;;;632.40;579.72;;;15.50;99.90;;;15.84;59.29;98525.00;4947530;28;20226;-80
2023/03/18 09:53:02;;;;;;;632.88;581.40;;;15.70;99.90;;;15.78;58.12;98445.31;4942159;28;20233;-82
2023/03/18 09:55:48;;;;;;;644.20;592.88;;;15.70;99.90;;;15.77;58.60;98428.44;4945764;28;20236;-82
2023/03/18 09:58:49;;;;;;;658.97;607.15;;;15.70;99.90;;;16.08;58.12;98446.63;4946148;29;20252;-81
2023/03/18 10:01:17;;;;;;;673.70;621.30;;;16.00;99.90;;;16.11;57.51;98397.63;4961825;28;20248;-82
2023/03/18 10:04:14;;;;;;;684.00;631.58;;;16.00;99.90;;;16.09;58.10;98423.47;4961764;28;20324;-82
2023/03/18 10:06:44;;;;;;;687.45;634.33;;;15.90;99.90;;;15.90;58.15;98355.00;4950391;28;20234;-83
2023/03/18 10:09:25;;;;;;;683.30;631.83;;;;;;;16.22;57.83;98388.19;4948569;28;20320;-83
2023/03/18 10:12:31;;;;;;;695.05;642.40;;;16.00;99.90;;;16.28;57.72;98357.69;4946094;28;20296;-82
2023/03/18 10:15:12;;;;;;;697.65;645.03;;;16.40;99.90;;;16.69;57.85;98422.47;4946822;28;20252;-84
2023/03/18 10:17:45;;;;;;;710.17;656.75;;;16.50;99.90;;;16.53;55.59;98254.22;4943858;28;20237;-81